createdAt,value
2016-07-15T00:00:24.799Z,15.1
2016-07-15T00:01:24.769Z,15.21
2016-07-15T00:02:24.748Z,15.21
2016-07-15T00:03:24.723Z,15.18
2016-07-15T00:04:24.704Z,15.18
2016-07-15T00:05:24.682Z,15.21
2016-07-15T00:06:24.660Z,15.17
2016-07-15T00:07:24.635Z,15.21
2016-07-15T00:08:24.615Z,15.27
2016-07-15T00:09:24.595Z,15.17
2016-07-15T00:10:24.571Z,15.19
2016-07-15T00:11:24.548Z,15.19
2016-07-15T00:12:24.527Z,15.18
2016-07-15T00:13:24.505Z,15.28
2016-07-15T00:14:24.486Z,15.18
2016-07-15T00:15:24.463Z,15.21
2016-07-15T00:16:24.441Z,15.25
2016-07-15T00:17:25.113Z,15.19
2016-07-15T00:18:24.398Z,15.15
2016-07-15T00:19:24.375Z,15.19
2016-07-15T00:20:24.353Z,15.22
2016-07-15T00:21:24.338Z,15.18
2016-07-15T00:22:24.320Z,15.06
2016-07-15T00:23:24.286Z,15.22
2016-07-15T00:24:24.267Z,15.06
2016-07-15T00:25:24.245Z,15.14
2016-07-15T00:26:24.222Z,15.14
2016-07-15T00:27:24.201Z,15.17
2016-07-15T00:28:24.177Z,15.21
2016-07-15T00:29:24.158Z,15.17
2016-07-15T00:30:24.135Z,15.21
2016-07-15T00:31:24.115Z,15.21
2016-07-15T00:32:24.090Z,15.14
2016-07-15T00:33:24.071Z,15.17
2016-07-15T00:34:24.047Z,15.07
2016-07-15T00:35:24.024Z,14.92
2016-07-15T00:36:24.011Z,15.09
2016-07-15T00:37:23.980Z,14.97
2016-07-15T00:38:23.962Z,14.94
2016-07-15T00:39:23.937Z,14.96
2016-07-15T00:40:23.916Z,14.94
2016-07-15T00:41:23.894Z,14.96
2016-07-15T00:42:23.871Z,14.94
2016-07-15T00:43:23.847Z,14.94
2016-07-15T00:44:23.830Z,14.96
2016-07-15T00:45:23.805Z,14.92
2016-07-15T00:46:23.783Z,14.92
2016-07-15T00:47:23.759Z,14.97
2016-07-15T00:48:23.740Z,14.89
2016-07-15T00:49:23.720Z,14.91
2016-07-15T00:50:23.694Z,14.91
2016-07-15T00:51:23.673Z,14.94
2016-07-15T00:52:23.652Z,14.94
2016-07-15T00:53:23.631Z,14.94
2016-07-15T00:54:23.612Z,14.92
2016-07-15T00:55:23.588Z,14.86
2016-07-15T00:56:23.562Z,14.88
2016-07-15T00:57:23.543Z,14.89
2016-07-15T00:58:23.521Z,14.88
2016-07-15T00:59:23.504Z,14.88
2016-07-15T01:00:23.481Z,14.91
2016-07-15T01:01:23.457Z,14.89
2016-07-15T01:02:23.431Z,14.85
2016-07-15T01:03:23.412Z,14.89
2016-07-15T01:04:23.391Z,14.88
2016-07-15T01:05:23.375Z,14.85
2016-07-15T01:06:23.344Z,14.91
2016-07-15T01:07:23.321Z,14.89
2016-07-15T01:08:23.301Z,14.92
2016-07-15T01:09:23.284Z,14.89
2016-07-15T01:10:23.256Z,14.94
2016-07-15T01:11:23.233Z,14.94
2016-07-15T01:12:23.210Z,14.89
2016-07-15T01:13:23.190Z,14.88
2016-07-15T01:14:23.169Z,14.91
2016-07-15T01:15:23.152Z,14.84
2016-07-15T01:16:23.125Z,14.88
2016-07-15T01:17:23.099Z,14.89
2016-07-15T01:18:23.080Z,14.85
2016-07-15T01:19:23.056Z,14.89
2016-07-15T01:20:23.033Z,14.88
2016-07-15T01:21:23.019Z,14.82
2016-07-15T01:22:22.996Z,14.88
2016-07-15T01:23:22.970Z,14.84
2016-07-15T01:24:22.950Z,14.92
2016-07-15T01:25:22.925Z,14.89
2016-07-15T01:26:22.910Z,14.85
2016-07-15T01:27:22.883Z,14.92
2016-07-15T01:28:22.860Z,14.96
2016-07-15T01:29:22.836Z,14.84
2016-07-15T01:30:22.816Z,14.89
2016-07-15T01:31:22.793Z,14.92
2016-07-15T01:32:22.773Z,14.91
2016-07-15T01:33:22.748Z,14.88
2016-07-15T01:34:22.724Z,14.86
2016-07-15T01:35:22.707Z,14.91
2016-07-15T01:36:22.683Z,14.91
2016-07-15T01:37:22.658Z,14.94
2016-07-15T01:38:22.639Z,14.91
2016-07-15T01:39:22.620Z,14.86
2016-07-15T01:40:22.605Z,14.85
2016-07-15T01:41:22.573Z,14.92
2016-07-15T01:42:22.550Z,14.94
2016-07-15T01:43:22.530Z,14.96
2016-07-15T01:44:22.513Z,14.89
2016-07-15T01:45:22.481Z,14.92
2016-07-15T01:46:22.462Z,14.89
2016-07-15T01:47:22.440Z,14.97
2016-07-15T01:48:22.415Z,14.91
2016-07-15T01:49:22.396Z,14.91
2016-07-15T01:50:22.377Z,14.82
2016-07-15T01:51:22.348Z,14.91
2016-07-15T01:52:22.330Z,14.81
2016-07-15T01:53:22.305Z,14.84
2016-07-15T01:54:22.286Z,14.79
2016-07-15T01:55:22.265Z,14.84
2016-07-15T01:56:22.247Z,14.86
2016-07-15T01:57:22.218Z,14.89
2016-07-15T01:58:22.198Z,14.84
2016-07-15T01:59:22.175Z,14.85
2016-07-15T02:00:22.155Z,14.77
2016-07-15T02:01:22.133Z,14.77
2016-07-15T02:02:22.109Z,14.84
2016-07-15T02:03:22.085Z,14.82
2016-07-15T02:04:22.070Z,14.63
2016-07-15T02:05:22.043Z,14.77
2016-07-15T02:06:22.019Z,14.84
2016-07-15T02:07:21.995Z,14.7
2016-07-15T02:08:21.976Z,14.73
2016-07-15T02:09:21.965Z,14.77
2016-07-15T02:10:21.936Z,14.72
2016-07-15T02:11:21.911Z,14.79
2016-07-15T02:12:21.887Z,14.72
2016-07-15T02:13:21.863Z,14.77
2016-07-15T02:14:21.841Z,14.63
2016-07-15T02:15:21.820Z,14.72
2016-07-15T02:16:21.802Z,14.73
2016-07-15T02:17:22.469Z,14.7
2016-07-15T02:18:21.753Z,14.73
2016-07-15T02:19:21.735Z,14.77
2016-07-15T02:20:21.710Z,14.77
2016-07-15T02:21:21.688Z,14.77
2016-07-15T02:22:22.362Z,14.69
2016-07-15T02:23:21.645Z,14.77
2016-07-15T02:24:21.626Z,14.77
2016-07-15T02:25:21.599Z,14.81
2016-07-15T02:26:21.578Z,14.7
2016-07-15T02:27:21.557Z,14.69
2016-07-15T02:28:21.533Z,14.72
2016-07-15T02:29:21.512Z,14.77
2016-07-15T02:30:21.490Z,14.78
2016-07-15T02:31:21.469Z,14.73
2016-07-15T02:32:21.444Z,14.66
2016-07-15T02:33:21.421Z,14.73
2016-07-15T02:34:21.402Z,14.58
2016-07-15T02:35:21.378Z,14.68
2016-07-15T02:36:21.356Z,14.69
2016-07-15T02:37:21.335Z,14.72
2016-07-15T02:38:21.309Z,14.62
2016-07-15T02:39:21.293Z,14.6
2016-07-15T02:40:21.265Z,14.62
2016-07-15T02:41:21.246Z,14.58
2016-07-15T02:42:21.222Z,14.66
2016-07-15T02:43:21.197Z,14.68
2016-07-15T02:44:21.180Z,14.65
2016-07-15T02:45:21.156Z,14.62
2016-07-15T02:46:21.131Z,14.6
2016-07-15T02:47:21.113Z,14.6
2016-07-15T02:48:21.087Z,14.65
2016-07-15T02:49:21.066Z,14.65
2016-07-15T02:50:21.044Z,14.66
2016-07-15T02:51:21.021Z,14.73
2016-07-15T02:52:21.001Z,14.72
2016-07-15T02:53:20.976Z,14.7
2016-07-15T02:54:20.958Z,14.69
2016-07-15T02:55:20.932Z,14.68
2016-07-15T02:56:20.914Z,14.66
2016-07-15T02:57:20.888Z,14.68
2016-07-15T02:58:20.870Z,14.6
2016-07-15T02:59:20.845Z,14.62
2016-07-15T03:00:20.818Z,14.59
2016-07-15T03:01:20.802Z,14.63
2016-07-15T03:02:20.775Z,14.58
2016-07-15T03:03:20.757Z,14.58
2016-07-15T03:04:20.736Z,14.65
2016-07-15T03:05:20.711Z,14.62
2016-07-15T03:06:20.694Z,14.6
2016-07-15T03:07:20.666Z,14.63
2016-07-15T03:08:20.646Z,14.72
2016-07-15T03:09:20.621Z,14.69
2016-07-15T03:10:20.598Z,14.68
2016-07-15T03:11:20.575Z,14.66
2016-07-15T03:12:20.552Z,14.7
2016-07-15T03:13:20.534Z,14.66
2016-07-15T03:14:20.509Z,14.69
2016-07-15T03:15:20.484Z,14.59
2016-07-15T03:16:20.466Z,14.58
2016-07-15T03:17:20.446Z,14.58
2016-07-15T03:18:21.120Z,14.59
2016-07-15T03:19:20.399Z,14.62
2016-07-15T03:20:20.377Z,14.59
2016-07-15T03:21:20.355Z,14.6
2016-07-15T03:22:20.336Z,14.43
2016-07-15T03:23:21.005Z,14.53
2016-07-15T03:24:20.288Z,14.43
2016-07-15T03:25:20.264Z,14.5
2016-07-15T03:26:20.241Z,14.47
2016-07-15T03:27:20.220Z,14.47
2016-07-15T03:28:20.197Z,14.51
2016-07-15T03:29:20.175Z,14.47
2016-07-15T03:30:20.161Z,14.37
2016-07-15T03:31:20.130Z,14.44
2016-07-15T03:32:20.113Z,14.45
2016-07-15T03:33:20.085Z,14.44
2016-07-15T03:34:20.064Z,14.47
2016-07-15T03:35:20.039Z,14.45
2016-07-15T03:36:20.019Z,14.48
2016-07-15T03:37:19.997Z,14.51
2016-07-15T03:38:19.979Z,14.45
2016-07-15T03:39:19.953Z,14.48
2016-07-15T03:40:19.933Z,14.53
2016-07-15T03:41:19.905Z,14.51
2016-07-15T03:42:19.884Z,14.47
2016-07-15T03:43:19.864Z,14.5
2016-07-15T03:44:19.839Z,14.51
2016-07-15T03:45:19.819Z,14.53
2016-07-15T03:46:19.808Z,14.54
2016-07-15T03:47:19.771Z,14.51
2016-07-15T03:48:19.751Z,14.53
2016-07-15T03:49:19.731Z,14.58
2016-07-15T03:50:19.705Z,14.53
2016-07-15T03:51:19.686Z,14.6
2016-07-15T03:52:19.664Z,14.65
2016-07-15T03:53:19.638Z,14.63
2016-07-15T03:54:19.618Z,14.6
2016-07-15T03:55:19.597Z,14.58
2016-07-15T03:56:19.573Z,14.62
2016-07-15T03:57:20.242Z,14.63
2016-07-15T03:58:19.539Z,14.59
2016-07-15T03:59:19.506Z,14.62
2016-07-15T04:00:19.480Z,14.62
2016-07-15T04:01:19.461Z,14.63
2016-07-15T04:02:19.438Z,14.66
2016-07-15T04:03:19.418Z,14.6
2016-07-15T04:04:19.396Z,14.65
2016-07-15T04:05:19.371Z,14.63
2016-07-15T04:06:19.352Z,14.62
2016-07-15T04:07:19.338Z,14.63
2016-07-15T04:08:19.306Z,14.59
2016-07-15T04:09:19.286Z,14.65
2016-07-15T04:10:19.264Z,14.65
2016-07-15T04:11:19.291Z,14.62
2016-07-15T04:12:19.219Z,14.59
2016-07-15T04:13:19.191Z,14.58
2016-07-15T04:14:19.172Z,14.55
2016-07-15T04:15:19.155Z,14.63
2016-07-15T04:16:19.125Z,14.63
2016-07-15T04:17:19.108Z,14.59
2016-07-15T04:18:19.087Z,14.62
2016-07-15T04:19:19.063Z,14.63
2016-07-15T04:20:19.042Z,14.45
2016-07-15T04:21:19.015Z,14.58
2016-07-15T04:22:18.994Z,14.44
2016-07-15T04:23:18.976Z,14.44
2016-07-15T04:24:18.951Z,14.6
2016-07-15T04:25:19.617Z,14.6
2016-07-15T04:26:18.907Z,14.59
2016-07-15T04:27:18.881Z,14.6
2016-07-15T04:28:18.866Z,14.53
2016-07-15T04:29:18.848Z,14.63
2016-07-15T04:30:18.821Z,14.6
2016-07-15T04:31:18.801Z,14.62
2016-07-15T04:32:18.774Z,14.62
2016-07-15T04:33:18.760Z,14.54
2016-07-15T04:34:18.732Z,14.59
2016-07-15T04:35:18.711Z,14.59
2016-07-15T04:36:18.689Z,14.58
2016-07-15T04:37:18.665Z,14.6
2016-07-15T04:38:18.643Z,14.63
2016-07-15T04:39:18.621Z,14.63
2016-07-15T04:40:18.598Z,14.6
2016-07-15T04:41:18.578Z,14.65
2016-07-15T04:42:18.558Z,14.77
2016-07-15T04:43:18.529Z,14.66
2016-07-15T04:44:18.513Z,14.77
2016-07-15T04:45:18.489Z,14.7
2016-07-15T04:46:18.469Z,14.82
2016-07-15T04:47:18.449Z,14.81
2016-07-15T04:48:18.424Z,14.77
2016-07-15T04:49:18.401Z,14.82
2016-07-15T04:50:18.382Z,14.84
2016-07-15T04:51:18.359Z,14.88
2016-07-15T04:52:18.333Z,14.94
2016-07-15T04:53:18.316Z,14.97
2016-07-15T04:54:18.298Z,14.86
2016-07-15T04:55:18.275Z,14.88
2016-07-15T04:56:18.253Z,14.92
2016-07-15T04:57:18.228Z,14.92
2016-07-15T04:58:18.217Z,14.99
2016-07-15T04:59:18.186Z,15.09
2016-07-15T05:00:18.167Z,15.11
2016-07-15T05:01:18.143Z,15.14
2016-07-15T05:02:18.118Z,15.18
2016-07-15T05:03:18.101Z,15.15
2016-07-15T05:04:18.081Z,15.04
2016-07-15T05:05:18.054Z,15.14
2016-07-15T05:06:18.036Z,15.18
2016-07-15T05:07:18.012Z,15.21
2016-07-15T05:08:17.991Z,15.18
2016-07-15T05:09:17.975Z,15.19
2016-07-15T05:10:17.948Z,15.1
2016-07-15T05:11:17.930Z,15.11
2016-07-15T05:12:17.906Z,15.15
2016-07-15T05:13:17.885Z,15.11
2016-07-15T05:14:17.867Z,15.17
2016-07-15T05:15:17.843Z,15.15
2016-07-15T05:16:17.820Z,15.24
2016-07-15T05:17:17.803Z,15.17
2016-07-15T05:18:17.777Z,15.25
2016-07-15T05:19:17.757Z,15.21
2016-07-15T05:20:17.737Z,15.19
2016-07-15T05:21:17.715Z,15.22
2016-07-15T05:22:17.695Z,15.18
2016-07-15T05:23:17.674Z,15.14
2016-07-15T05:24:17.659Z,15.07
2016-07-15T05:25:17.631Z,15.19
2016-07-15T05:26:17.612Z,15.19
2016-07-15T05:27:17.587Z,15.17
2016-07-15T05:28:17.570Z,15.22
2016-07-15T05:29:17.548Z,15.19
2016-07-15T05:30:17.525Z,15.21
2016-07-15T05:31:17.505Z,15.25
2016-07-15T05:32:17.486Z,15.31
2016-07-15T05:33:17.463Z,15.27
2016-07-15T05:34:17.445Z,15.37
2016-07-15T05:35:17.423Z,15.36
2016-07-15T05:36:17.403Z,15.43
2016-07-15T05:37:17.381Z,15.43
2016-07-15T05:38:17.358Z,15.43
2016-07-15T05:39:17.350Z,15.4
2016-07-15T05:40:17.325Z,15.44
2016-07-15T05:41:17.297Z,15.4
2016-07-15T05:42:17.292Z,15.33
2016-07-15T05:43:17.263Z,15.35
2016-07-15T05:44:17.242Z,15.36
2016-07-15T05:45:17.217Z,15.33
2016-07-15T05:46:17.201Z,15.27
2016-07-15T05:47:17.176Z,15.31
2016-07-15T05:48:17.154Z,15.33
2016-07-15T05:49:17.140Z,15.29
2016-07-15T05:50:17.114Z,15.24
2016-07-15T05:51:17.095Z,15.24
2016-07-15T05:52:17.069Z,15.22
2016-07-15T05:53:17.054Z,15.24
2016-07-15T05:54:17.030Z,15.28
2016-07-15T05:55:17.011Z,15.33
2016-07-15T05:56:16.990Z,15.36
2016-07-15T05:57:16.974Z,15.37
2016-07-15T05:58:16.948Z,15.33
2016-07-15T05:59:16.927Z,15.33
2016-07-15T06:00:16.903Z,15.31
2016-07-15T06:01:16.883Z,15.31
2016-07-15T06:02:16.866Z,15.33
2016-07-15T06:03:16.841Z,15.33
2016-07-15T06:04:16.823Z,15.28
2016-07-15T06:05:16.808Z,15.35
2016-07-15T06:06:16.782Z,15.31
2016-07-15T06:07:16.761Z,15.19
2016-07-15T06:08:16.740Z,15.17
2016-07-15T06:09:16.727Z,15.17
2016-07-15T06:10:16.698Z,15.25
2016-07-15T06:11:16.678Z,15.27
2016-07-15T06:12:16.658Z,15.29
2016-07-15T06:13:16.636Z,15.29
2016-07-15T06:14:16.617Z,15.39
2016-07-15T06:15:16.596Z,15.46
2016-07-15T06:16:16.579Z,15.42
2016-07-15T06:17:16.555Z,15.44
2016-07-15T06:18:16.533Z,15.51
2016-07-15T06:19:16.518Z,15.47
2016-07-15T06:20:16.505Z,15.42
2016-07-15T06:21:16.474Z,15.58
2016-07-15T06:22:16.456Z,15.59
2016-07-15T06:23:16.435Z,15.62
2016-07-15T06:24:16.420Z,15.64
2016-07-15T06:25:16.412Z,15.65
2016-07-15T06:26:16.376Z,15.76
2016-07-15T06:27:16.359Z,15.77
2016-07-15T06:28:16.340Z,15.84
2016-07-15T06:29:16.321Z,15.86
2016-07-15T06:30:16.298Z,15.97
2016-07-15T06:31:16.325Z,15.95
2016-07-15T06:32:16.267Z,16.09
2016-07-15T06:33:16.242Z,16.13
2016-07-15T06:34:16.227Z,16.08
2016-07-15T06:35:16.211Z,16.33
2016-07-15T06:36:16.188Z,16.35
2016-07-15T06:37:16.171Z,16.54
2016-07-15T06:38:16.159Z,16.75
2016-07-15T06:39:16.135Z,16.83
2016-07-15T06:40:16.118Z,16.89
2016-07-15T06:41:16.100Z,16.86
2016-07-15T06:42:16.085Z,16.81
2016-07-15T06:43:16.067Z,16.91
2016-07-15T06:44:16.060Z,16.89
2016-07-15T06:45:16.048Z,16.86
2016-07-15T06:46:16.128Z,16.86
2016-07-15T06:47:16.008Z,16.78
2016-07-15T06:48:16.885Z,16.78
2016-07-15T06:49:15.962Z,16.74
2016-07-15T06:50:15.980Z,16.75
2016-07-15T06:51:15.978Z,16.78
2016-07-15T06:52:15.968Z,16.84
2016-07-15T06:53:15.891Z,16.86
2016-07-15T06:54:15.897Z,16.87
2016-07-15T06:55:15.871Z,17.02
2016-07-15T06:56:16.573Z,16.84
2016-07-15T06:57:15.961Z,16.81
2016-07-15T06:58:15.831Z,16.84
2016-07-15T06:59:15.912Z,16.84
2016-07-15T07:00:16.889Z,16.89
2016-07-15T07:01:15.751Z,16.87
2016-07-15T07:02:15.757Z,16.84
2016-07-15T07:03:16.439Z,16.79
2016-07-15T07:04:16.422Z,16.81
2016-07-15T07:05:16.377Z,16.78
2016-07-15T07:06:15.664Z,16.78
2016-07-15T07:07:15.645Z,16.76
2016-07-15T07:08:15.631Z,16.83
2016-07-15T07:09:15.610Z,16.83
2016-07-15T07:10:15.593Z,16.91
2016-07-15T07:11:16.995Z,16.94
2016-07-15T07:12:15.561Z,16.89
2016-07-15T07:13:15.539Z,17.01
2016-07-15T07:14:15.527Z,17.05
2016-07-15T07:15:15.528Z,17.2
2016-07-15T07:16:15.490Z,17.24
2016-07-15T07:17:15.477Z,17.27
2016-07-15T07:18:15.456Z,17.27
2016-07-15T07:19:15.440Z,17.3
2016-07-15T07:20:15.422Z,17.31
2016-07-15T07:21:15.410Z,17.42
2016-07-15T07:22:15.390Z,17.44
2016-07-15T07:23:15.384Z,17.44
2016-07-15T07:24:15.366Z,17.54
2016-07-15T07:25:15.341Z,17.57
2016-07-15T07:26:15.550Z,17.7
2016-07-15T07:27:15.312Z,17.76
2016-07-15T07:28:15.285Z,17.85
2016-07-15T07:29:15.273Z,17.98
2016-07-15T07:30:15.258Z,18.2
2016-07-15T07:31:15.240Z,18.18
2016-07-15T07:32:15.221Z,18.25
2016-07-15T07:33:15.207Z,18.29
2016-07-15T07:34:15.190Z,18.26
2016-07-15T07:35:15.172Z,18.16
2016-07-15T07:36:15.158Z,18.11
2016-07-15T07:37:15.142Z,17.98
2016-07-15T07:38:15.123Z,17.95
2016-07-15T07:39:15.892Z,18
2016-07-15T07:40:15.093Z,17.85
2016-07-15T07:41:15.074Z,17.78
2016-07-15T07:42:15.292Z,17.76
2016-07-15T07:43:15.043Z,17.79
2016-07-15T07:44:15.026Z,17.87
2016-07-15T07:45:15.010Z,17.95
2016-07-15T07:46:14.999Z,18
2016-07-15T07:47:14.975Z,18.01
2016-07-15T07:48:14.958Z,17.98
2016-07-15T07:49:14.969Z,18
2016-07-15T07:50:14.928Z,18.07
2016-07-15T07:51:14.961Z,18.07
2016-07-15T07:52:14.946Z,18.18
2016-07-15T07:53:14.881Z,18.19
2016-07-15T07:54:14.863Z,18.2
2016-07-15T07:55:14.847Z,18.25
2016-07-15T07:56:14.869Z,18.26
2016-07-15T07:57:14.865Z,18.5
2016-07-15T07:58:14.801Z,18.53
2016-07-15T07:59:15.550Z,18.65
2016-07-15T08:00:14.773Z,18.86
2016-07-15T08:01:14.759Z,18.99
2016-07-15T08:02:14.746Z,19.11
2016-07-15T08:03:14.731Z,19.14
2016-07-15T08:04:14.715Z,19.16
2016-07-15T08:05:14.700Z,19.11
2016-07-15T08:06:14.757Z,19.09
2016-07-15T08:07:14.674Z,18.96
2016-07-15T08:08:14.662Z,18.93
2016-07-15T08:09:14.651Z,18.95
2016-07-15T08:10:14.633Z,19.11
2016-07-15T08:11:14.621Z,19.36
2016-07-15T08:12:14.603Z,19.31
2016-07-15T08:13:15.330Z,19.44
2016-07-15T08:14:15.445Z,19.52
2016-07-15T08:15:14.563Z,19.64
2016-07-15T08:16:14.553Z,19.64
2016-07-15T08:17:14.541Z,19.89
2016-07-15T08:18:14.525Z,19.96
2016-07-15T08:19:14.513Z,20.07
2016-07-15T08:20:14.636Z,20.07
2016-07-15T08:21:14.490Z,20.11
2016-07-15T08:22:15.217Z,20.14
2016-07-15T08:23:14.494Z,20.06
2016-07-15T08:24:14.454Z,19.99
2016-07-15T08:25:14.437Z,19.92
2016-07-15T08:26:14.494Z,19.86
2016-07-15T08:27:14.410Z,19.76
2016-07-15T08:28:14.400Z,19.81
2016-07-15T08:29:14.465Z,19.74
2016-07-15T08:30:14.411Z,19.86
2016-07-15T08:31:15.118Z,20
2016-07-15T08:32:14.345Z,20.09
2016-07-15T08:33:14.336Z,20.32
2016-07-15T08:34:14.342Z,20.44
2016-07-15T08:35:14.308Z,20.65
2016-07-15T08:36:14.297Z,20.81
2016-07-15T08:37:14.339Z,20.87
2016-07-15T08:38:14.274Z,20.99
2016-07-15T08:39:14.284Z,21.17
2016-07-15T08:40:15.164Z,21.09
2016-07-15T08:41:14.254Z,20.95
2016-07-15T08:42:14.247Z,20.75
2016-07-15T08:43:14.217Z,20.65
2016-07-15T08:44:14.204Z,20.39
2016-07-15T08:45:14.233Z,20.28
2016-07-15T08:46:14.180Z,20.19
2016-07-15T08:47:14.162Z,20.18
2016-07-15T08:48:14.152Z,20.24
2016-07-15T08:49:14.139Z,20.19
2016-07-15T08:50:14.125Z,20.32
2016-07-15T08:51:14.113Z,20.59
2016-07-15T08:52:14.101Z,20.56
2016-07-15T08:53:14.088Z,20.69
2016-07-15T08:54:14.075Z,20.75
2016-07-15T08:55:14.059Z,20.75
2016-07-15T08:56:14.049Z,20.82
2016-07-15T08:57:14.043Z,20.82
2016-07-15T08:58:14.052Z,20.7
2016-07-15T08:59:14.801Z,20.74
2016-07-15T09:00:14.066Z,20.8
2016-07-15T09:01:14.018Z,20.72
2016-07-15T09:02:13.984Z,20.6
2016-07-15T09:03:13.998Z,20.67
2016-07-15T09:04:13.960Z,20.58
2016-07-15T09:05:13.948Z,20.48
2016-07-15T09:06:13.933Z,20.36
2016-07-15T09:07:14.623Z,20.31
2016-07-15T09:08:13.926Z,20.34
2016-07-15T09:09:13.893Z,20.5
2016-07-15T09:10:13.905Z,20.6
2016-07-15T09:11:13.871Z,20.7
2016-07-15T09:12:13.858Z,20.78
2016-07-15T09:13:13.850Z,20.75
2016-07-15T09:14:13.832Z,20.65
2016-07-15T09:15:13.903Z,20.58
2016-07-15T09:16:13.818Z,20.51
2016-07-15T09:17:13.840Z,20.58
2016-07-15T09:18:13.797Z,20.72
2016-07-15T09:19:13.876Z,20.81
2016-07-15T09:20:13.775Z,20.96
2016-07-15T09:21:13.759Z,21.15
2016-07-15T09:22:13.767Z,21.24
2016-07-15T09:23:13.720Z,21.33
2016-07-15T09:24:13.705Z,21.45
2016-07-15T09:25:13.697Z,21.43
2016-07-15T09:26:13.707Z,21.33
2016-07-15T09:27:13.671Z,21.35
2016-07-15T09:28:13.706Z,21.17
2016-07-15T09:29:13.650Z,21.24
2016-07-15T09:30:13.643Z,21.18
2016-07-15T09:31:13.707Z,21.03
2016-07-15T09:32:13.657Z,21
2016-07-15T09:33:13.654Z,20.96
2016-07-15T09:34:13.596Z,20.99
2016-07-15T09:35:13.632Z,20.96
2016-07-15T09:36:13.614Z,20.93
2016-07-15T09:37:13.562Z,20.92
2016-07-15T09:38:14.361Z,20.85
2016-07-15T09:39:13.535Z,20.82
2016-07-15T09:40:13.519Z,20.84
2016-07-15T09:41:13.517Z,20.88
2016-07-15T09:42:13.494Z,20.81
2016-07-15T09:43:13.491Z,20.72
2016-07-15T09:44:13.471Z,20.67
2016-07-15T09:45:13.459Z,20.66
2016-07-15T09:46:13.447Z,20.62
2016-07-15T09:47:13.438Z,20.6
2016-07-15T09:48:13.421Z,20.52
2016-07-15T09:49:13.410Z,20.63
2016-07-15T09:50:13.392Z,20.4
2016-07-15T09:51:13.439Z,20.51
2016-07-15T09:52:13.365Z,20.52
2016-07-15T09:53:13.351Z,20.59
2016-07-15T09:54:14.032Z,20.81
2016-07-15T09:55:13.331Z,21
2016-07-15T09:56:13.310Z,21.12
2016-07-15T09:57:13.301Z,21.18
2016-07-15T09:58:13.288Z,21.24
2016-07-15T09:59:13.272Z,21.25
2016-07-15T10:00:13.262Z,21.39
2016-07-15T10:01:13.257Z,21.51
2016-07-15T10:02:13.239Z,21.62
2016-07-15T10:03:13.229Z,21.75
2016-07-15T10:04:13.216Z,21.91
2016-07-15T10:05:13.204Z,21.91
2016-07-15T10:06:13.198Z,22.17
2016-07-15T10:07:13.186Z,22.23
2016-07-15T10:08:13.176Z,22.22
2016-07-15T10:09:13.169Z,22.23
2016-07-15T10:10:13.162Z,22.23
2016-07-15T10:11:13.151Z,22.25
2016-07-15T10:12:13.136Z,22.38
2016-07-15T10:13:13.124Z,22.43
2016-07-15T10:14:13.118Z,22.55
2016-07-15T10:15:13.106Z,22.6
2016-07-15T10:16:13.099Z,22.81
2016-07-15T10:17:13.090Z,22.84
2016-07-15T10:18:13.078Z,22.62
2016-07-15T10:19:13.069Z,22.48
2016-07-15T10:20:13.061Z,22.36
2016-07-15T10:21:13.049Z,22.41
2016-07-15T10:22:13.040Z,22.26
2016-07-15T10:23:13.030Z,22.28
2016-07-15T10:24:13.021Z,22.28
2016-07-15T10:25:13.016Z,22.35
2016-07-15T10:26:13.001Z,22.25
2016-07-15T10:27:12.992Z,22.26
2016-07-15T10:28:12.982Z,22.06
2016-07-15T10:29:12.971Z,22.02
2016-07-15T10:30:12.967Z,21.93
2016-07-15T10:31:12.953Z,22
2016-07-15T10:32:12.940Z,22.26
2016-07-15T10:33:12.930Z,22.39
2016-07-15T10:34:12.920Z,22.39
2016-07-15T10:35:12.909Z,22.35
2016-07-15T10:36:12.979Z,22.28
2016-07-15T10:37:12.888Z,22.15
2016-07-15T10:38:12.877Z,22.04
2016-07-15T10:39:12.869Z,22.13
2016-07-15T10:40:12.858Z,22.1
2016-07-15T10:41:12.858Z,21.95
2016-07-15T10:42:12.833Z,21.85
2016-07-15T10:43:12.908Z,21.88
2016-07-15T10:44:13.502Z,21.75
2016-07-15T10:45:12.795Z,21.89
2016-07-15T10:46:12.789Z,21.92
2016-07-15T10:47:12.773Z,21.99
2016-07-15T10:48:12.767Z,22.02
2016-07-15T10:49:12.752Z,21.93
2016-07-15T10:50:12.768Z,21.82
2016-07-15T10:51:12.731Z,21.76
2016-07-15T10:52:12.712Z,21.62
2016-07-15T10:53:12.701Z,21.52
2016-07-15T10:54:12.690Z,21.6
2016-07-15T10:55:12.672Z,21.58
2016-07-15T10:56:12.664Z,21.5
2016-07-15T10:57:12.663Z,21.48
2016-07-15T10:58:12.637Z,21.37
2016-07-15T10:59:12.624Z,21.52
2016-07-15T11:00:12.612Z,21.72
2016-07-15T11:01:12.597Z,21.79
2016-07-15T11:02:12.588Z,21.91
2016-07-15T11:03:12.581Z,22.1
2016-07-15T11:04:12.564Z,22.15
2016-07-15T11:05:12.549Z,22.22
2016-07-15T11:06:12.537Z,22.32
2016-07-15T11:07:12.526Z,22.39
2016-07-15T11:08:12.516Z,22.44
2016-07-15T11:09:12.504Z,22.41
2016-07-15T11:10:12.493Z,22.45
2016-07-15T11:11:12.486Z,22.45
2016-07-15T11:12:12.482Z,22.6
2016-07-15T11:13:12.479Z,22.63
2016-07-15T11:14:12.455Z,22.69
2016-07-15T11:15:13.129Z,22.88
2016-07-15T11:16:12.433Z,23.05
2016-07-15T11:17:12.422Z,23.32
2016-07-15T11:18:12.411Z,23.4
2016-07-15T11:19:12.406Z,23.56
2016-07-15T11:20:12.549Z,23.77
2016-07-15T11:21:12.384Z,23.95
2016-07-15T11:22:12.378Z,24.06
2016-07-15T11:23:12.369Z,24.02
2016-07-15T11:24:12.365Z,23.91
2016-07-15T11:25:12.352Z,23.8
2016-07-15T11:26:12.347Z,23.78
2016-07-15T11:27:12.341Z,23.56
2016-07-15T11:28:12.331Z,23.61
2016-07-15T11:29:12.324Z,23.56
2016-07-15T11:30:12.315Z,23.68
2016-07-15T11:31:12.327Z,23.74
2016-07-15T11:32:12.292Z,23.81
2016-07-15T11:33:12.288Z,23.76
2016-07-15T11:34:12.278Z,23.71
2016-07-15T11:35:12.276Z,23.71
2016-07-15T11:36:12.258Z,23.83
2016-07-15T11:37:12.249Z,24.1
2016-07-15T11:38:12.244Z,24.17
2016-07-15T11:39:12.231Z,24.28
2016-07-15T11:40:12.227Z,23.98
2016-07-15T11:41:12.217Z,23.92
2016-07-15T11:42:12.208Z,23.78
2016-07-15T11:43:12.201Z,23.8
2016-07-15T11:44:12.190Z,23.66
2016-07-15T11:45:12.186Z,23.59
2016-07-15T11:46:12.170Z,23.46
2016-07-15T11:47:12.162Z,23.36
2016-07-15T11:48:12.151Z,23.18
2016-07-15T11:49:12.142Z,23.39
2016-07-15T11:50:12.133Z,23.61
2016-07-15T11:51:12.120Z,23.76
2016-07-15T11:52:12.110Z,23.84
2016-07-15T11:53:12.805Z,23.93
2016-07-15T11:54:12.096Z,24.1
2016-07-15T11:55:12.081Z,24.28
2016-07-15T11:56:12.077Z,24.43
2016-07-15T11:57:12.066Z,24.66
2016-07-15T11:58:12.056Z,24.51
2016-07-15T11:59:12.050Z,24.29
2016-07-15T12:00:12.043Z,24.33
2016-07-15T12:01:12.034Z,24.2
2016-07-15T12:02:12.033Z,24.2
2016-07-15T12:03:12.020Z,24.21
2016-07-15T12:04:12.013Z,24.21
2016-07-15T12:05:12.007Z,24.35
2016-07-15T12:06:12.001Z,24.43
2016-07-15T12:07:11.991Z,24.61
2016-07-15T12:08:11.982Z,24.77
2016-07-15T12:09:11.974Z,24.89
2016-07-15T12:10:11.974Z,24.92
2016-07-15T12:11:11.963Z,24.86
2016-07-15T12:12:11.952Z,24.7
2016-07-15T12:13:11.948Z,24.65
2016-07-15T12:14:11.936Z,24.61
2016-07-15T12:15:11.932Z,24.53
2016-07-15T12:16:11.926Z,24.42
2016-07-15T12:17:11.914Z,24.4
2016-07-15T12:18:11.906Z,24.33
2016-07-15T12:19:11.949Z,24.33
2016-07-15T12:20:11.890Z,24.38
2016-07-15T12:21:11.878Z,24.35
2016-07-15T12:22:11.873Z,24.17
2016-07-15T12:23:11.862Z,24.1
2016-07-15T12:24:11.853Z,24.1
2016-07-15T12:25:11.844Z,24.05
2016-07-15T12:26:11.835Z,23.98
2016-07-15T12:27:11.823Z,23.95
2016-07-15T12:28:11.816Z,24.01
2016-07-15T12:29:11.806Z,24.18
2016-07-15T12:30:11.800Z,24.35
2016-07-15T12:31:11.788Z,24.65
2016-07-15T12:32:11.786Z,24.86
2016-07-15T12:33:11.770Z,24.99
2016-07-15T12:34:11.762Z,24.99
2016-07-15T12:35:11.753Z,24.91
2016-07-15T12:36:11.745Z,24.92
2016-07-15T12:37:11.733Z,24.86
2016-07-15T12:38:11.726Z,24.7
2016-07-15T12:39:11.717Z,24.77
2016-07-15T12:40:11.709Z,24.61
2016-07-15T12:41:11.698Z,24.58
2016-07-15T12:42:11.688Z,24.43
2016-07-15T12:43:11.682Z,24.26
2016-07-15T12:44:11.671Z,24.32
2016-07-15T12:45:11.667Z,24.5
2016-07-15T12:46:11.653Z,24.53
2016-07-15T12:47:11.643Z,24.53
2016-07-15T12:48:11.634Z,24.5
2016-07-15T12:49:11.623Z,24.5
2016-07-15T12:50:11.616Z,24.4
2016-07-15T12:51:11.602Z,24.32
2016-07-15T12:52:11.598Z,24.29
2016-07-15T12:53:11.582Z,24.28
2016-07-15T12:54:11.574Z,24.13
2016-07-15T12:55:11.565Z,24.14